UUEE Airport Information

Runway Information
Runway 07L Length 11647 ft width 197 ft
Elevation 620 ft Threshold 0 ft Heading 75
Runway 25R Length 11647 ft Width 197 ft
Elevation 622 ft Threshold 0 ft Heading 255
Runway 07R Length 12139 ft width 197 ft
Elevation 617 ft Threshold 0 ft Heading 75
Runway 25L Length 12139 ft Width 197 ft
Elevation 620 ft Threshold 0 ft Heading 255
Airport Frequencies
Type APP Name APP 1 Frequency 119.3 MHZ
Type APP Name APP 2 Frequency 123.7 MHZ
Type ATIS Name ATIS Frequency 125.125 MHZ
Type GND Name GND Frequency 119 MHZ
Type PMSV Name VOLMET Frequency 127.875 MHZ
Type RDR Name RADAR Frequency 118.1 MHZ
Type TWR Name TWR Frequency 120.7 MHZ
Airport Navaids
Type NDB Name Sheremetyevo Frequency 338 KHZ
Type NDB Name Sheremetyevo Frequency 700 KHZ
Type NDB Name Sheremetyevo Frequency 770 KHZ
Type NDB Name Sheremetyevo Frequency 380 KHZ
Type NDB Name Sheremetyevo Frequency 338 KHZ
Type VOR-DME Name Sheremetyevo Frequency 114600 KHZ
Type NDB Name Sheremetyevo Frequency 700 KHZ
Type NDB Name Sheremetyevo Frequency 770 KHZ
Type NDB Name Sheremetyevo Frequency 380 KHZ
Airport Weather Information & NOTAM
ADDS - METARS form results

(1047 UTC 19 December 2018)
Data provider http://aviationweather.gov/metar/data/
 
METAR text: UUEE 191030Z 08002MPS 3300 -SN OVC015 M08/M09 Q1035 R06R/450145 R06C/450140 NOSIG
Conditions at: UUEE (MOSCOW/SHEREMET', RU) observed 1030 UTC 19 December 2018
Temperature: -8.0°C (18°F)
Dewpoint: -9.0°C (16°F) [RH = 92%]
Pressure (altimeter): 30.56 inches Hg (1035.0 mb)
Winds: from the E (80 degrees) at 5 MPH (4 knots; 2.1 m/s)
Visibility: 2.05 miles (3.30 km)
Ceiling: 1500 feet AGL
Clouds: overcast cloud deck at 1500 feet AGL
Weather: -SN  (light snow)

METAR text: UUEE 191000Z 09003MPS 3000 -SN OVC038 M08/M09 Q1035 R06R/490326 NOSIG
Conditions at: UUEE (MOSCOW/SHEREMET', RU) observed 1000 UTC 19 December 2018
Temperature: -8.0°C (18°F)
Dewpoint: -9.0°C (16°F) [RH = 92%]
Pressure (altimeter): 30.56 inches Hg (1035.0 mb)
Winds: from the E (90 degrees) at 7 MPH (6 knots; 3.1 m/s)
Visibility: 1.86 miles (2.99 km)
Ceiling: 3800 feet AGL
Clouds: overcast cloud deck at 3800 feet AGL
Weather: -SN  (light snow)

Forecast for: UUEE (MOSCOW/SHEREMET', RU)
Text: TAF UUEE 190758Z 1909/2009 08003MPS 3100 -SN OVC015 TXM09/1912Z TNM12/2003Z
Forecast period: 0900 UTC 19 December 2018 to 0900 UTC 20 December 2018
Forecast type: FROM: standard forecast or significant change
Winds: from the E (80 degrees) at 7 MPH (6 knots; 3.1 m/s)
Visibility: 1.93 miles (3.11 km)
Ceiling: 1500 feet AGL
Clouds: overcast cloud deck at 1500 feet AGL
Weather: -SN  (light snow)
Text: TEMPO 1909/1918 1500 SN SCT006 OVC015
Forecast period: 0900 to 1800 UTC 19 December 2018
Forecast type: TEMPORARY: The following changes expected for less than half the time period
Visibility: 0.93 miles (1.50 km)
Ceiling: 1500 feet AGL
Clouds: scattered clouds at 600 feet AGL
overcast cloud deck at 1500 feet AGL
Weather: SN  (moderate snow)